Time;durP1;ratioP1;P1;durP2;ratioP2;P2;SDS_P1;SDS_P2;PMS_P1;PMS_P2;Temp;Humidity;BMP_temperature;BMP_pressure;BME280_temperature;BME280_humidity;BME280_pressure;Samples;Min_cycle;Max_cycle;Signal;HPM_P1;HPM_P2
2023/07/17 00:04:36;;;;;;;20.00;18.20;;;;;;;21.88;96.91;99094.73;273700;1257;22369;-80
2023/07/17 00:10:40;;;;;;;20.40;18.70;;;;;;;21.72;97.23;99094.69;273701;1269;22192;-78
2023/07/17 00:16:42;;;;;;;20.00;17.50;;;;;;;21.58;97.93;99100.45;273594;1269;22143;-79
2023/07/17 00:22:47;;;;;;;21.10;18.80;;;;;;;21.53;98.27;99103.48;273625;1258;22401;-79
2023/07/17 00:28:49;;;;;;;20.80;18.80;;;;;;;21.44;98.47;99104.95;273695;1269;22457;-79
2023/07/17 00:34:51;;;;;;;19.20;17.10;;;;;;;21.35;98.99;99108.89;271648;1266;23124;-79
2023/07/17 00:40:52;;;;;;;19.00;17.10;;;;;;;21.34;99.50;99117.81;270709;1269;22518;-78
2023/07/17 00:46:54;;;;;;;21.20;19.10;;;;;;;21.32;99.43;99107.78;270395;1269;22519;-79
2023/07/17 00:52:56;;;;;;;18.00;16.40;;;;;;;21.22;99.88;99103.33;270431;1269;22516;-79
2023/07/17 00:58:58;;;;;;;18.10;16.40;;;;;;;21.16;100.00;99096.00;270549;1269;25234;-79
2023/07/17 01:05:00;;;;;;;20.90;18.80;;;;;;;21.07;100.00;99086.35;271224;1269;22606;-78
2023/07/17 01:11:03;;;;;;;19.90;18.00;;;;;;;20.95;100.00;99083.74;270364;1269;22606;-80
2023/07/17 01:17:04;;;;;;;20.70;18.60;;;;;;;20.85;100.00;99084.34;270254;1256;22481;-78
2023/07/17 01:23:06;;;;;;;20.80;18.90;;;;;;;20.74;100.00;99081.02;270184;1268;22597;-78
2023/07/17 01:29:08;;;;;;;19.90;18.00;;;;;;;20.70;100.00;99082.06;271087;1269;22440;-78
2023/07/17 01:35:11;;;;;;;21.10;19.10;;;;;;;20.60;100.00;99089.84;269971;1269;22547;-79
2023/07/17 01:41:20;;;;;;;21.60;19.40;;;;;;;20.57;100.00;99085.85;270686;1257;22241;-78
2023/07/17 01:47:21;;;;;;;21.70;17.10;;;;;;;20.54;100.00;99090.00;273994;1260;22143;-78
2023/07/17 01:53:23;;;;;;;19.40;17.40;;;;;;;20.45;100.00;99093.02;273529;1269;23440;-80
2023/07/17 01:59:25;;;;;;;18.10;16.50;;;;;;;20.34;100.00;99100.00;273728;1256;22424;-78
2023/07/17 02:05:27;;;;;;;20.60;18.70;;;;;;;20.29;100.00;99104.43;273578;1269;22188;-78
2023/07/17 02:11:32;;;;;;;21.10;18.00;;;;;;;20.31;100.00;99110.42;273610;1269;22413;-80
2023/07/17 02:17:34;;;;;;;17.90;16.30;;;;;;;20.31;100.00;99126.21;273557;1269;22368;-78
2023/07/17 02:23:36;;;;;;;20.80;18.70;;;;;;;20.34;100.00;99140.41;273388;1256;22981;-78
2023/07/17 02:30:08;;;;;;;22.90;20.70;;;;;;;20.24;100.00;99132.97;273468;1269;22188;-78
2023/07/17 02:36:09;;;;;;;22.40;19.60;;;;;;;20.12;100.00;99119.20;273356;1268;23022;-77
2023/07/17 02:42:11;;;;;;;22.70;20.10;;;;;;;20.02;100.00;99118.80;273431;1269;23960;-79
2023/07/17 02:48:13;;;;;;;24.20;21.50;;;;;;;19.94;100.00;99124.52;273356;1260;22492;-78
2023/07/17 02:54:15;;;;;;;24.90;22.30;;;;;;;19.90;100.00;99129.99;273296;1267;22531;-78
2023/07/17 03:00:17;;;;;;;20.30;18.20;;;;;;;19.92;100.00;99139.78;270393;1269;22570;-79
2023/07/17 03:06:19;;;;;;;24.30;21.80;;;;;;;19.95;100.00;99137.95;270137;1269;22199;-79
2023/07/17 03:12:21;;;;;;;25.40;22.80;;;;;;;19.90;100.00;99124.90;271928;1269;22490;-79
2023/07/17 03:18:25;;;;;;;27.80;23.00;;;;;;;19.81;100.00;99111.14;273333;1269;124015;-79
2023/07/17 03:24:28;;;;;;;24.60;21.60;;;;;;;19.73;100.00;99112.61;273274;1269;22208;-79
2023/07/17 03:30:31;;;;;;;22.50;20.10;;;;;;;19.70;100.00;99126.51;273562;1269;22440;-82
2023/07/17 03:36:50;;;;;;;22.80;20.40;;;;;;;19.73;100.00;99125.31;273382;1270;22234;-80
2023/07/17 03:42:52;;;;;;;25.20;21.70;;;;;;;19.78;100.00;99124.41;273078;1269;22544;-80
2023/07/17 03:48:57;;;;;;;21.00;18.90;;;;;;;19.83;100.00;99133.33;271815;1269;22357;-79
2023/07/17 03:54:59;;;;;;;22.90;20.70;;;;;;;19.90;100.00;99142.13;270926;1269;22504;-79
2023/07/17 04:01:01;;;;;;;22.80;20.50;;;;;;;19.95;100.00;99142.16;271049;1258;22184;-81
2023/07/17 04:07:06;;;;;;;21.90;19.30;;;;;;;19.94;100.00;99144.48;271327;1260;22522;-79
2023/07/17 04:13:15;;;;;;;23.90;20.20;;;;;;;20.03;100.00;99140.79;271237;1260;22416;-80
2023/07/17 04:19:17;;;;;;;20.80;18.80;;;;;;;20.12;100.00;99134.69;273225;1269;22304;-79
2023/07/17 04:25:25;;;;;;;23.30;20.40;;;;;;;20.22;100.00;99134.77;271325;1266;22221;-79
2023/07/17 04:31:32;;;;;;;23.40;21.00;;;;;;;20.22;100.00;99132.72;273065;1269;22658;-79
2023/07/17 04:37:38;;;;;;;23.00;20.60;;;;;;;20.27;100.00;99123.85;272035;1269;22650;-79
2023/07/17 04:43:40;;;;;;;24.70;22.20;;;;;;;20.33;100.00;99110.68;271416;1268;22225;-79
2023/07/17 04:49:42;;;;;;;22.60;20.40;;;;;;;20.47;100.00;99110.79;271201;1269;23773;-79
2023/07/17 04:55:44;;;;;;;23.40;21.00;;;;;;;20.67;100.00;99115.70;272803;1269;23154;-79
2023/07/17 05:01:47;;;;;;;26.10;21.20;;;;;;;20.89;100.00;99106.64;273466;1269;22432;-79
2023/07/17 05:07:49;;;;;;;24.90;22.20;;;;;;;21.08;100.00;99092.84;270963;1269;26449;-79
2023/07/17 05:13:53;;;;;;;22.70;20.50;;;;;;;21.24;100.00;99089.56;272300;1260;22221;-79
2023/07/17 05:19:55;;;;;;;24.90;20.70;;;;;;;21.36;100.00;99099.62;272065;1267;22471;-79
2023/07/17 05:25:59;;;;;;;24.60;22.00;;;;;;;21.40;100.00;99115.24;273194;1269;22202;-80
2023/07/17 05:32:03;;;;;;;25.30;22.60;;;;;;;21.44;100.00;99129.77;273234;1269;22367;-80
2023/07/17 05:38:06;;;;;;;23.10;20.50;;;;;;;21.52;100.00;99135.96;271674;1269;22615;-81
2023/07/17 05:44:08;;;;;;;20.20;18.00;;;;;;;21.63;100.00;99142.37;271441;1269;22545;-80
2023/07/17 05:50:14;;;;;;;20.50;18.50;;;;;;;21.71;100.00;99154.25;270592;1269;22524;-79
2023/07/17 05:56:16;;;;;;;21.90;19.50;;;;;;;21.75;100.00;99182.16;270667;1269;22503;-78
2023/07/17 06:02:32;;;;;;;23.30;20.80;;;;;;;21.70;100.00;99262.38;271037;1260;22523;-79
2023/07/17 06:08:34;;;;;;;24.20;20.10;;;;;;;21.62;100.00;99262.92;273095;1268;22380;-80
2023/07/17 06:14:36;;;;;;;15.60;12.90;;;;;;;21.67;100.00;99255.86;273403;1258;22448;-79
2023/07/17 06:20:38;;;;;;;10.80;6.90;;;;;;;21.82;100.00;99262.45;273074;1268;22243;-80
2023/07/17 06:26:41;;;;;;;8.70;5.30;;;;;;;22.02;100.00;99294.09;273184;1269;23535;-79
2023/07/17 06:32:44;;;;;;;9.10;4.90;;;;;;;21.97;100.00;99300.52;273425;1261;22115;-79
2023/07/17 06:38:46;;;;;;;8.80;3.80;;;;;;;21.78;100.00;99297.11;273346;1256;22349;-79
2023/07/17 06:44:48;;;;;;;5.40;2.90;;;;;;;21.63;100.00;99293.05;272957;1254;22187;-78
2023/07/17 06:50:50;;;;;;;3.70;2.00;;;;;;;21.74;100.00;99285.27;272714;1268;22616;-78
2023/07/17 06:56:52;;;;;;;3.10;1.90;;;;;;;21.86;100.00;99280.01;273685;1262;23004;-79
2023/07/17 07:02:54;;;;;;;5.80;1.90;;;;;;;22.15;100.00;99266.83;273521;1269;23177;-78
2023/07/17 07:08:56;;;;;;;2.80;1.70;;;;;;;22.43;100.00;99272.00;273505;1261;23280;-78
2023/07/17 07:14:58;;;;;;;5.40;1.50;;;;;;;22.56;100.00;99282.67;273654;1260;22243;-78
2023/07/17 07:21:00;;;;;;;6.10;2.10;;;;;;;22.73;100.00;99269.77;273504;1253;22394;-79
2023/07/17 07:27:02;;;;;;;8.20;1.80;;;;;;;22.90;99.53;99276.52;273217;1269;23784;-78
2023/07/17 07:33:04;;;;;;;2.90;1.40;;;;;;;22.76;98.34;99286.95;272457;1257;22531;-78
2023/07/17 07:39:06;;;;;;;4.60;1.90;;;;;;;22.57;97.55;99280.98;269770;1269;22730;-78
2023/07/17 07:45:21;;;;;;;5.50;2.10;;;;;;;22.35;97.40;99271.29;271825;1259;22366;-78
2023/07/17 07:51:23;;;;;;;3.50;1.80;;;;;;;22.15;97.11;99258.00;273225;1269;22868;-78
2023/07/17 07:57:25;;;;;;;2.50;1.70;;;;;;;22.01;96.73;99257.50;272452;1267;22365;-78
2023/07/17 08:03:27;;;;;;;3.70;1.90;;;;;;;21.96;96.24;99263.29;273390;1259;23354;-78
2023/07/17 08:09:29;;;;;;;3.40;1.80;;;;;;;21.96;95.73;99278.83;273396;1269;23030;-78
2023/07/17 08:15:31;;;;;;;9.70;2.40;;;;;;;21.95;95.06;99274.46;273529;1269;22474;-79
2023/07/17 08:21:33;;;;;;;4.50;1.70;;;;;;;21.96;94.09;99258.66;272343;1269;22566;-79
2023/07/17 08:27:39;;;;;;;2.90;1.80;;;;;;;21.95;93.35;99253.13;273598;1269;22344;-79
2023/07/17 08:33:41;;;;;;;5.20;1.60;;;;;;;21.96;93.47;99255.40;271456;1269;22222;-79
2023/07/17 08:39:42;;;;;;;4.30;1.60;;;;;;;22.00;93.06;99252.16;270584;1268;22564;-80
2023/07/17 08:45:45;;;;;;;2.40;1.60;;;;;;;22.02;92.57;99240.83;271392;1269;22605;-80
2023/07/17 08:51:49;;;;;;;3.30;1.50;;;;;;;22.10;92.73;99241.85;273154;1268;22436;-79
2023/07/17 08:57:52;;;;;;;3.80;1.20;;;;;;;22.21;92.94;99237.39;273304;1269;22368;-80
2023/07/17 09:03:58;;;;;;;2.50;1.10;;;;;;;22.33;92.83;99239.18;273444;1269;22374;-79
2023/07/17 09:10:15;;;;;;;2.70;1.30;;;;;;;22.45;92.33;99230.58;273026;1269;22232;-79
2023/07/17 09:16:26;;;;;;;2.80;1.60;;;;;;;22.56;91.95;99233.02;273288;1269;22865;-78
2023/07/17 09:22:28;;;;;;;2.30;1.30;;;;;;;22.65;91.80;99234.31;273608;1269;22496;-79
2023/07/17 09:28:29;;;;;;;3.30;1.20;;;;;;;22.72;91.35;99232.23;273646;1257;22247;-79
2023/07/17 09:34:38;;;;;;;2.40;1.30;;;;;;;22.83;92.39;99231.52;273957;1266;22204;-79
2023/07/17 09:40:40;;;;;;;2.80;1.70;;;;;;;22.94;92.20;99223.40;273596;1268;22548;-80
2023/07/17 09:46:50;;;;;;;3.50;1.20;;;;;;;23.05;91.80;99221.32;272126;1253;22571;-81
2023/07/17 09:52:52;;;;;;;1.60;1.20;;;;;;;23.25;91.57;99214.27;270288;1269;23331;-81
2023/07/17 09:58:55;;;;;;;5.40;1.80;;;;;;;23.52;91.49;99205.11;273464;1260;22414;-80
2023/07/17 10:04:58;;;;;;;3.10;1.30;;;;;;;23.78;90.77;99187.12;270800;1269;22530;-78
2023/07/17 10:11:06;;;;;;;2.70;1.70;;;;;;;24.01;90.30;99174.27;270561;1269;22551;-79
2023/07/17 10:17:28;;;;;;;3.30;1.90;;;;;;;24.27;90.20;99166.77;271531;1268;22370;-79
2023/07/17 10:23:30;;;;;;;1.50;1.20;;;;;;;24.60;89.06;99161.04;273424;1259;23081;-79
2023/07/17 10:29:40;;;;;;;2.40;1.30;;;;;;;25.02;87.88;99153.37;273292;1268;23297;-79
2023/07/17 10:35:46;;;;;;;3.20;1.40;;;;;;;25.25;87.27;99154.88;272179;1268;22650;-79
2023/07/17 10:41:51;;;;;;;4.40;1.40;;;;;;;25.48;86.70;99139.80;272904;1259;22396;-80
2023/07/17 10:47:52;;;;;;;5.90;1.70;;;;;;;25.53;85.52;99127.09;272827;1269;22633;-79
2023/07/17 10:53:55;;;;;;;4.20;2.00;;;;;;;25.48;84.91;99134.23;272746;1269;22462;-80
2023/07/17 11:00:17;;;;;;;3.70;1.90;;;;;;;25.30;84.17;99141.05;273344;1269;22440;-79
2023/07/17 11:06:19;;;;;;;6.40;1.90;;;;;;;25.16;83.87;99142.80;273312;1269;22432;-79
2023/07/17 11:12:24;;;;;;;5.30;2.40;;;;;;;25.02;83.62;99137.91;272387;1268;22337;-79
2023/07/17 11:18:26;;;;;;;6.10;1.60;;;;;;;24.88;83.66;99133.85;273504;1267;22464;-79
2023/07/17 11:24:28;;;;;;;3.20;1.60;;;;;;;24.71;83.79;99123.17;273571;1268;22849;-79
2023/07/17 11:30:34;;;;;;;2.60;1.70;;;;;;;24.56;84.18;99129.27;273597;1269;22371;-81
2023/07/17 11:36:46;;;;;;;5.70;1.40;;;;;;;24.30;84.81;99160.85;273254;1269;22382;-79
2023/07/17 11:42:56;;;;;;;10.40;2.50;;;;;;;23.94;84.90;99200.30;272915;1269;22430;-79
2023/07/17 11:48:59;;;;;;;4.60;2.60;;;;;;;23.54;85.59;99205.67;272723;1268;22177;-78
2023/07/17 11:55:01;;;;;;;4.30;2.60;;;;;;;23.08;86.59;99221.48;273600;1268;22450;-78
2023/07/17 12:01:03;;;;;;;5.80;3.70;;;;;;;22.67;86.89;99222.34;273469;1269;22184;-79
2023/07/17 12:07:16;;;;;;;5.20;3.30;;;;;;;22.25;88.49;99216.55;272523;1268;22197;-79
2023/07/17 12:13:22;;;;;;;8.20;3.10;;;;;;;21.92;90.10;99207.19;271422;1269;22128;-78
2023/07/17 12:19:24;;;;;;;5.20;3.30;;;;;;;21.76;92.02;99212.77;272297;1269;22205;-79
2023/07/17 12:25:25;;;;;;;8.10;3.80;;;;;;;21.64;93.67;99260.23;273629;1269;22549;-82
2023/07/17 12:31:27;;;;;;;10.30;5.50;;;;;;;21.44;94.17;99275.63;273578;1269;22211;-82
2023/07/17 12:37:30;;;;;;;12.60;5.90;;;;;;;21.13;94.98;99262.33;273355;1269;23305;-80
2023/07/17 12:43:32;;;;;;;12.20;5.60;;;;;;;20.86;96.34;99250.08;272014;1267;22452;-80
2023/07/17 12:49:34;;;;;;;13.20;6.30;;;;;;;20.65;97.73;99233.36;271280;1269;22642;-85
2023/07/17 12:55:39;;;;;;;13.50;5.80;;;;;;;20.45;98.75;99197.08;272017;1269;23761;-80
2023/07/17 13:01:42;;;;;;;9.50;5.00;;;;;;;20.31;99.96;99202.06;271668;1269;22459;-80
2023/07/17 13:08:06;;;;;;;9.00;7.30;;;;;;;20.20;100.00;99213.84;271728;1254;24065;-79
2023/07/17 13:14:23;;;;;;;7.30;5.60;;;;;;;20.03;100.00;99297.17;270820;1268;22546;-80
2023/07/17 13:20:25;;;;;;;7.10;4.40;;;;;;;19.86;100.00;99369.38;272597;1269;22524;-79
2023/07/17 13:26:30;;;;;;;8.30;4.40;;;;;;;19.70;100.00;99404.88;271855;1268;23893;-78
2023/07/17 13:32:35;;;;;;;6.40;4.20;;;;;;;19.57;100.00;99397.26;272384;1259;23458;-80
2023/07/17 13:38:37;;;;;;;7.50;4.90;;;;;;;19.52;100.00;99361.96;272702;1269;22267;-82
2023/07/17 13:45:21;;;;;;;8.60;4.90;;;;;;;19.47;100.00;99352.39;273417;1269;22422;-82
2023/07/17 13:51:32;;;;;;;6.80;4.70;;;;;;;19.44;100.00;99335.55;273133;1269;23410;-81
2023/07/17 13:57:36;;;;;;;8.10;5.20;;;;;;;19.44;100.00;99308.58;273293;1268;22402;-82
2023/07/17 14:03:45;;;;;;;7.60;4.70;;;;;;;19.40;100.00;99278.20;273900;1271;26201;-81
2023/07/17 14:10:30;;;;;;;;;;;;;;;;;;;;;
2023/07/17 14:17:08;;;;;;;6.20;4.30;;;;;;;19.44;100.00;99237.27;271995;1269;22553;-79
2023/07/17 14:23:11;;;;;;;10.70;5.10;;;;;;;19.48;100.00;99194.42;273081;1269;22190;-80
2023/07/17 14:29:33;;;;;;;5.90;4.60;;;;;;;19.52;100.00;99195.08;273657;1268;22911;-81
2023/07/17 14:35:43;;;;;;;7.90;4.40;;;;;;;19.64;100.00;99185.44;273551;1268;23398;-81
2023/07/17 14:42:07;;;;;;;4.90;3.60;;;;;;;19.80;100.00;99194.83;273355;1269;22197;-80
2023/07/17 14:48:11;;;;;;;6.40;4.40;;;;;;;20.03;100.00;99185.55;273715;1269;23000;-78
2023/07/17 14:54:14;;;;;;;3.70;3.40;;;;;;;20.37;100.00;99168.23;273103;1268;22418;-82
2023/07/17 15:00:18;;;;;;;3.40;3.10;;;;;;;20.66;100.00;99153.32;272087;1268;22554;-80
2023/07/17 15:06:28;;;;;;;4.40;3.30;;;;;;;20.97;100.00;99150.57;272611;1269;22926;-79
2023/07/17 15:12:30;;;;;;;4.70;3.20;;;;;;;21.08;100.00;99169.74;271076;1269;22228;-79
2023/07/17 15:18:45;;;;;;;3.10;2.80;;;;;;;21.24;100.00;99170.07;273087;1261;162425;-79
2023/07/17 15:25:08;;;;;;;4.20;2.90;;;;;;;21.40;100.00;99164.02;273758;1269;22349;-80
2023/07/17 15:31:11;;;;;;;3.60;2.70;;;;;;;21.40;100.00;99155.67;273104;1269;22471;-81
2023/07/17 15:37:13;;;;;;;4.20;2.10;;;;;;;21.42;100.00;99149.56;272988;1259;22569;-82
2023/07/17 15:43:35;;;;;;;4.30;2.40;;;;;;;21.45;100.00;99136.90;271575;1260;22525;-81
2023/07/17 15:49:39;;;;;;;2.50;1.90;;;;;;;21.45;100.00;99121.94;271809;1260;22493;-79
2023/07/17 15:55:40;;;;;;;3.60;2.10;;;;;;;21.47;100.00;99122.68;273155;1269;22521;-81
2023/07/17 16:01:45;;;;;;;2.60;1.80;;;;;;;21.45;100.00;99130.38;272306;1260;23398;-81
2023/07/17 16:07:47;;;;;;;2.70;2.00;;;;;;;21.43;100.00;99131.45;271878;1269;25382;-82
2023/07/17 16:13:49;;;;;;;2.50;1.60;;;;;;;21.44;100.00;99130.09;271700;1269;22220;-80
2023/07/17 16:19:50;;;;;;;3.10;1.90;;;;;;;21.40;100.00;99132.52;270984;1269;23085;-79
2023/07/17 16:25:52;;;;;;;3.20;2.10;;;;;;;21.32;100.00;99129.34;270707;1269;22508;-80
2023/07/17 16:31:55;;;;;;;3.00;2.10;;;;;;;21.25;100.00;99106.39;270937;1263;24939;-79
2023/07/17 16:37:56;;;;;;;4.10;1.70;;;;;;;21.34;100.00;99102.88;271412;1266;22651;-80
2023/07/17 16:43:59;;;;;;;5.40;1.90;;;;;;;21.53;100.00;99104.74;271611;1266;22409;-80
2023/07/17 16:50:01;;;;;;;2.70;1.50;;;;;;;21.60;100.00;99090.83;273189;1269;22300;-81
2023/07/17 16:56:03;;;;;;;2.50;1.80;;;;;;;21.66;100.00;99093.34;272368;1269;22708;-80
2023/07/17 17:02:06;;;;;;;2.60;1.50;;;;;;;21.73;100.00;99090.41;272774;1269;23362;-81
2023/07/17 17:08:08;;;;;;;3.00;1.40;;;;;;;21.77;100.00;99086.12;272794;1261;22528;-82
2023/07/17 17:14:15;;;;;;;2.50;1.60;;;;;;;21.74;100.00;99090.77;271364;1269;22546;-79
2023/07/17 17:20:20;;;;;;;1.30;1.20;;;;;;;21.74;100.00;99074.24;270895;1259;22524;-81
2023/07/17 17:26:22;;;;;;;2.10;1.40;;;;;;;21.70;100.00;99065.59;271127;1269;22499;-80
2023/07/17 17:32:24;;;;;;;2.10;1.50;;;;;;;21.57;100.00;99062.65;271582;1269;25252;-80
2023/07/17 17:38:25;;;;;;;1.50;1.40;;;;;;;21.44;100.00;99062.30;272322;1260;22532;-80
2023/07/17 17:44:48;;;;;;;2.90;1.50;;;;;;;21.29;100.00;99046.70;273679;1266;24242;-80
2023/07/17 17:50:50;;;;;;;3.70;1.60;;;;;;;21.21;100.00;99038.20;265429;1269;10001264;-81
2023/07/17 17:57:21;;;;;;;;;;;;;;;;;;;;;
2023/07/17 18:03:31;;;;;;;2.10;1.70;;;;;;;20.96;100.00;99063.13;273271;1259;22223;-80
2023/07/17 18:10:08;;;;;;;2.50;1.90;;;;;;;20.89;100.00;99057.67;273414;1269;22375;-80
2023/07/17 18:16:16;;;;;;;4.30;2.20;;;;;;;20.83;100.00;99042.75;272951;1260;22563;-80
2023/07/17 18:22:18;;;;;;;2.10;1.90;;;;;;;20.71;100.00;99030.95;272032;1254;25407;-80
2023/07/17 18:28:20;;;;;;;2.30;1.80;;;;;;;20.61;100.00;99034.10;273557;1257;22911;-80
2023/07/17 18:34:22;;;;;;;4.30;2.10;;;;;;;20.52;100.00;99024.65;272684;1269;22750;-79
2023/07/17 18:40:25;;;;;;;3.00;2.20;;;;;;;20.40;100.00;99024.27;272647;1269;22283;-80
2023/07/17 18:46:27;;;;;;;4.00;2.10;;;;;;;20.27;100.00;99018.79;273377;1263;22555;-80
2023/07/17 18:52:33;;;;;;;3.70;2.20;;;;;;;20.15;100.00;99012.26;273292;1256;23867;-80
2023/07/17 18:58:36;;;;;;;4.40;2.60;;;;;;;20.06;100.00;99004.88;272597;1269;22515;-80
2023/07/17 19:04:37;;;;;;;6.10;3.20;;;;;;;19.94;100.00;99003.45;272741;1256;22638;-80
2023/07/17 19:11:00;;;;;;;5.60;2.90;;;;;;;19.78;100.00;99011.07;273173;1267;22502;-80
2023/07/17 19:17:04;;;;;;;4.10;2.40;;;;;;;19.59;100.00;99016.95;273376;1269;22544;-80
2023/07/17 19:23:07;;;;;;;6.40;3.60;;;;;;;19.42;100.00;99018.33;273615;1269;22503;-82
2023/07/17 19:29:32;;;;;;;7.80;3.70;;;;;;;19.27;100.00;99017.23;272796;1259;27560;-79
2023/07/17 19:35:36;;;;;;;8.80;3.60;;;;;;;19.15;100.00;99017.99;273424;1265;23243;-80
2023/07/17 19:41:38;;;;;;;5.50;3.60;;;;;;;19.12;100.00;99025.82;273481;1269;22223;-80
2023/07/17 19:47:40;;;;;;;10.10;3.70;;;;;;;19.13;100.00;99026.38;273196;1267;22537;-81
2023/07/17 19:53:42;;;;;;;5.40;3.70;;;;;;;19.09;100.00;99031.60;272708;1266;22191;-80
2023/07/17 19:59:44;;;;;;;7.00;4.40;;;;;;;19.04;100.00;99033.31;271178;1259;22540;-80
2023/07/17 20:05:46;;;;;;;6.80;4.10;;;;;;;18.99;100.00;99039.98;271499;1260;23903;-78
2023/07/17 20:11:48;;;;;;;5.50;3.90;;;;;;;18.94;100.00;99047.39;271474;1269;22542;-80
2023/07/17 20:17:50;;;;;;;7.60;3.80;;;;;;;18.93;100.00;99062.48;271569;1269;23858;-80
2023/07/17 20:23:51;;;;;;;8.70;3.70;;;;;;;18.94;100.00;99068.71;272049;1269;22658;-80
2023/07/17 20:29:56;;;;;;;6.50;4.30;;;;;;;18.89;100.00;99065.24;271702;1269;22277;-80
2023/07/17 20:36:12;;;;;;;8.40;3.70;;;;;;;18.77;100.00;99062.39;272996;1269;22376;-80
2023/07/17 20:48:38;;;;;;;6.90;4.30;;;;;;;18.69;100.00;99073.17;273429;1269;22371;-80
2023/07/17 20:54:40;;;;;;;7.10;5.10;;;;;;;18.70;100.00;99079.27;272808;1269;22599;-80
2023/07/17 21:00:48;;;;;;;6.90;4.90;;;;;;;18.64;100.00;99082.09;271610;1264;22876;-80
2023/07/17 21:06:50;;;;;;;6.50;4.50;;;;;;;18.57;100.00;99076.84;271736;1269;22389;-80
2023/07/17 21:12:52;;;;;;;7.60;5.00;;;;;;;18.50;100.00;99076.66;271596;1270;22463;-79
2023/07/17 21:19:14;;;;;;;7.00;4.70;;;;;;;18.46;100.00;99074.59;270176;1268;23424;-80
2023/07/17 21:25:17;;;;;;;5.20;4.00;;;;;;;18.43;100.00;99075.20;270869;1268;25903;-81
2023/07/17 21:31:28;;;;;;;10.70;4.40;;;;;;;18.47;100.00;99073.86;270488;1269;23034;-80
2023/07/17 21:38:08;;;;;;;6.30;4.70;;;;;;;18.47;100.00;99079.56;271489;1269;22221;-81
2023/07/17 21:44:10;;;;;;;8.70;4.90;;;;;;;18.47;100.00;99082.17;271380;1269;22652;-80
2023/07/17 21:50:12;;;;;;;10.10;4.50;;;;;;;18.48;100.00;99090.01;270301;1269;22634;-78
2023/07/17 21:56:15;;;;;;;9.80;4.70;;;;;;;18.45;100.00;99091.09;271902;1269;23034;-79
2023/07/17 22:02:17;;;;;;;6.70;4.60;;;;;;;18.38;100.00;99090.25;271787;1269;22496;-79
2023/07/17 22:08:34;;;;;;;8.30;4.50;;;;;;;18.35;100.00;99091.08;273348;1260;23080;-80
2023/07/17 22:14:36;;;;;;;5.20;4.40;;;;;;;18.35;100.00;99097.58;272050;1270;22971;-80
2023/07/17 22:20:38;;;;;;;8.40;4.30;;;;;;;18.31;100.00;99102.96;272045;1269;22574;-80
2023/07/17 22:26:42;;;;;;;9.20;5.10;;;;;;;18.27;100.00;99097.33;271414;1270;24213;-80
2023/07/17 22:32:45;;;;;;;6.10;5.10;;;;;;;18.18;100.00;99100.58;271932;1269;27932;-80
2023/07/17 22:38:47;;;;;;;11.00;4.60;;;;;;;18.11;100.00;99100.70;271897;1257;22584;-80
2023/07/17 22:44:49;;;;;;;6.60;5.10;;;;;;;17.98;100.00;99098.88;271707;1269;23904;-80
2023/07/17 22:51:08;;;;;;;6.00;4.80;;;;;;;17.89;100.00;99106.23;271355;1269;24467;-79
2023/07/17 22:57:10;;;;;;;6.40;5.00;;;;;;;17.86;100.00;99104.70;270885;1269;22614;-81
2023/07/17 23:03:12;;;;;;;11.60;4.60;;;;;;;17.83;100.00;99111.00;271109;1269;25275;-79
2023/07/17 23:09:14;;;;;;;9.20;4.80;;;;;;;17.77;100.00;99113.79;271351;1269;22507;-80
2023/07/17 23:15:16;;;;;;;7.50;4.00;;;;;;;17.76;100.00;99111.36;271118;1270;23750;-80
2023/07/17 23:21:20;;;;;;;6.90;4.40;;;;;;;17.69;100.00;99115.80;271117;1269;22639;-82
2023/07/17 23:27:22;;;;;;;5.90;4.10;;;;;;;17.63;100.00;99116.93;271820;1261;22559;-80
2023/07/17 23:33:24;;;;;;;9.40;4.90;;;;;;;17.61;100.00;99118.38;271463;1269;22660;-79
2023/07/17 23:39:28;;;;;;;6.80;3.80;;;;;;;17.46;100.00;99115.42;270887;1269;22564;-80
2023/07/17 23:45:36;;;;;;;8.70;4.80;;;;;;;17.44;100.00;99110.16;271292;1260;24645;-80
2023/07/17 23:51:39;;;;;;;8.00;4.50;;;;;;;17.43;100.00;99104.63;270774;1269;22582;-79
2023/07/17 23:57:40;;;;;;;10.80;4.30;;;;;;;17.40;100.00;99094.40;271271;1269;22604;-79
